createdAt,value
2022-12-13T00:01:21.594Z,24.03
2022-12-13T00:02:52.981Z,23.59
2022-12-13T00:04:24.660Z,23.35
2022-12-13T00:05:56.328Z,23.41
2022-12-13T00:07:27.742Z,23.38
2022-12-13T00:08:59.006Z,22.84
2022-12-13T00:10:30.450Z,23.29
2022-12-13T00:12:06.799Z,23.50
2022-12-13T00:13:38.342Z,23.52
2022-12-13T00:15:09.797Z,22.58
2022-12-13T00:16:56.166Z,22.36
2022-12-13T00:18:27.560Z,22.30
2022-12-13T00:19:58.804Z,21.67
2022-12-13T00:21:30.492Z,22.15
2022-12-13T00:23:01.869Z,21.17
2022-12-13T00:24:34.199Z,20.83
2022-12-13T00:26:05.318Z,21.23
2022-12-13T00:27:36.643Z,20.61
2022-12-13T00:29:08.144Z,20.28
2022-12-13T00:30:39.824Z,20.61
2022-12-13T00:32:11.305Z,20.32
2022-12-13T00:33:44.044Z,21.00
2022-12-13T00:35:20.510Z,20.68
2022-12-13T00:36:52.569Z,20.35
2022-12-13T00:38:23.740Z,20.20
2022-12-13T00:39:55.113Z,20.47
2022-12-13T00:41:26.527Z,20.00
2022-12-13T00:42:58.307Z,20.01
2022-12-13T00:44:29.848Z,20.02
2022-12-13T00:46:01.527Z,20.33
2022-12-13T00:47:32.782Z,20.76
2022-12-13T00:49:09.519Z,20.31
2022-12-13T00:50:40.795Z,20.37
2022-12-13T00:52:12.229Z,20.27
2022-12-13T00:53:43.709Z,20.37
2022-12-13T00:55:15.523Z,20.07
2022-12-13T00:56:47.112Z,20.40
2022-12-13T00:58:18.478Z,20.42
2022-12-13T00:59:50.233Z,20.75
2022-12-13T01:01:21.700Z,21.04
2022-12-13T01:02:53.350Z,21.45
2022-12-13T01:04:24.807Z,21.37
2022-12-13T01:06:15.288Z,21.62
2022-12-13T01:07:52.518Z,21.24
2022-12-13T01:09:23.688Z,21.14
2022-12-13T01:10:55.276Z,21.11
2022-12-13T01:12:26.681Z,20.97
2022-12-13T01:13:58.086Z,20.36
2022-12-13T01:15:29.524Z,20.71
2022-12-13T01:17:01.184Z,20.32
2022-12-13T01:18:32.862Z,20.83
2022-12-13T01:20:04.512Z,21.20
2022-12-13T01:21:35.809Z,21.57
2022-12-13T01:23:07.350Z,21.24
2022-12-13T01:24:38.842Z,21.37
2022-12-13T01:26:10.277Z,21.33
2022-12-13T01:27:41.631Z,21.07
2022-12-13T01:29:13.182Z,21.24
2022-12-13T01:30:49.757Z,21.78
2022-12-13T01:32:21.145Z,21.40
2022-12-13T01:33:52.419Z,21.40
2022-12-13T01:35:23.554Z,21.07
2022-12-13T01:36:58.572Z,21.59
2022-12-13T01:38:30.726Z,21.59
2022-12-13T01:40:02.270Z,21.09
2022-12-13T01:41:47.424Z,21.21
2022-12-13T01:43:18.930Z,21.63
2022-12-13T01:44:50.099Z,20.60
2022-12-13T01:46:21.317Z,21.16
2022-12-13T01:47:52.810Z,21.96
2022-12-13T01:49:23.934Z,21.23
2022-12-13T01:50:55.507Z,21.80
2022-12-13T01:52:26.859Z,21.21
2022-12-13T01:53:58.236Z,21.20
2022-12-13T01:55:41.776Z,21.92
2022-12-13T01:57:13.479Z,21.02
2022-12-13T01:58:44.953Z,21.18
2022-12-13T02:00:16.449Z,22.06
2022-12-13T02:01:48.036Z,21.50
2022-12-13T02:03:21.226Z,21.34
2022-12-13T02:04:53.559Z,21.66
2022-12-13T02:06:29.935Z,21.63
2022-12-13T02:08:01.431Z,21.70
2022-12-13T02:09:32.869Z,21.35
2022-12-13T02:11:14.215Z,21.45
2022-12-13T02:12:45.582Z,22.56
2022-12-13T02:14:17.070Z,21.57
2022-12-13T02:15:48.489Z,21.76
2022-12-13T02:17:19.813Z,21.04
2022-12-13T02:18:52.247Z,21.15
2022-12-13T02:20:23.504Z,21.35
2022-12-13T02:21:54.672Z,21.42
2022-12-13T02:23:26.113Z,21.64
2022-12-13T02:24:57.284Z,21.07
2022-12-13T02:26:28.658Z,22.04
2022-12-13T02:28:00.524Z,21.95
2022-12-13T02:29:32.153Z,21.35
2022-12-13T02:31:03.914Z,21.01
2022-12-13T02:32:40.700Z,20.96
2022-12-13T02:34:13.224Z,21.06
2022-12-13T02:35:44.712Z,21.35
2022-12-13T02:37:17.813Z,21.31
2022-12-13T02:38:49.975Z,21.12
2022-12-13T02:40:21.442Z,20.89
2022-12-13T02:41:52.714Z,20.72
2022-12-13T02:43:23.929Z,20.81
2022-12-13T02:44:55.400Z,21.40
2022-12-13T02:46:26.651Z,21.49
2022-12-13T02:47:57.995Z,21.17
2022-12-13T02:49:29.645Z,20.89
2022-12-13T02:51:01.099Z,21.65
2022-12-13T02:52:32.548Z,21.09
2022-12-13T02:54:03.691Z,20.80
2022-12-13T02:55:36.186Z,21.25
2022-12-13T02:57:07.924Z,21.54
2022-12-13T02:58:39.715Z,20.82
2022-12-13T03:00:10.966Z,20.93
2022-12-13T03:01:42.505Z,20.91
2022-12-13T03:03:14.298Z,20.98
2022-12-13T03:04:45.857Z,20.71
2022-12-13T03:06:17.527Z,21.03
2022-12-13T03:07:49.093Z,20.88
2022-12-13T03:09:20.582Z,21.48
2022-12-13T03:10:51.844Z,21.41
2022-12-13T03:12:23.409Z,21.16
2022-12-13T03:13:54.976Z,21.19
2022-12-13T03:15:26.522Z,21.31
2022-12-13T03:16:57.993Z,21.63
2022-12-13T03:18:29.581Z,20.84
2022-12-13T03:20:00.928Z,21.66
2022-12-13T03:21:32.495Z,21.24
2022-12-13T03:23:04.068Z,21.38
2022-12-13T03:24:35.413Z,20.64
2022-12-13T03:26:11.823Z,21.01
2022-12-13T03:27:43.027Z,21.26
2022-12-13T03:29:14.197Z,21.60
2022-12-13T03:30:55.402Z,20.68
2022-12-13T03:32:26.892Z,21.40
2022-12-13T03:33:58.423Z,21.83
2022-12-13T03:35:35.026Z,21.19
2022-12-13T03:37:27.052Z,21.73
2022-12-13T03:39:01.239Z,21.45
2022-12-13T03:40:32.483Z,21.79
2022-12-13T03:42:35.945Z,21.21
2022-12-13T03:44:07.333Z,21.04
2022-12-13T03:45:38.951Z,21.69
2022-12-13T03:47:10.246Z,22.06
2022-12-13T03:48:41.864Z,21.06
2022-12-13T03:50:27.062Z,21.26
2022-12-13T03:52:08.866Z,21.33
2022-12-13T03:53:40.329Z,21.48
2022-12-13T03:55:11.927Z,21.35
2022-12-13T03:56:43.674Z,21.37
2022-12-13T03:58:15.141Z,21.62
2022-12-13T03:59:56.602Z,21.50
2022-12-13T04:01:47.968Z,21.18
2022-12-13T04:03:36.896Z,21.06
2022-12-13T04:05:32.087Z,21.50
2022-12-13T04:07:22.064Z,21.30
2022-12-13T04:09:09.051Z,21.42
2022-12-13T04:10:40.333Z,20.88
2022-12-13T04:12:16.881Z,21.22
2022-12-13T04:13:48.553Z,20.77
2022-12-13T04:15:25.203Z,20.36
2022-12-13T04:17:01.702Z,20.79
2022-12-13T04:19:03.568Z,20.49
2022-12-13T04:20:35.287Z,19.90
2022-12-13T04:22:24.675Z,19.93
2022-12-13T04:24:31.678Z,19.87
2022-12-13T04:26:03.809Z,20.50
2022-12-13T04:27:35.523Z,19.84
2022-12-13T04:29:07.049Z,19.73
2022-12-13T04:30:54.201Z,19.36
2022-12-13T04:32:46.950Z,18.82
2022-12-13T04:34:18.387Z,18.63
2022-12-13T04:36:07.549Z,18.54
2022-12-13T04:37:47.070Z,19.01
2022-12-13T04:39:22.297Z,19.54
2022-12-13T04:40:54.442Z,19.00
2022-12-13T04:42:25.950Z,19.13
2022-12-13T04:43:57.669Z,19.05
2022-12-13T04:45:29.323Z,19.13
2022-12-13T04:47:01.478Z,19.17
2022-12-13T04:48:33.520Z,19.56
2022-12-13T04:50:04.851Z,19.05
2022-12-13T04:51:36.276Z,18.75
2022-12-13T04:53:07.641Z,19.35
2022-12-13T04:54:39.189Z,19.10
2022-12-13T04:56:10.909Z,20.02
2022-12-13T04:57:47.306Z,19.45
2022-12-13T04:59:18.576Z,19.50
2022-12-13T05:00:49.982Z,19.32
2022-12-13T05:02:23.353Z,19.07
2022-12-13T05:03:55.565Z,19.97
2022-12-13T05:05:26.938Z,20.58
2022-12-13T05:06:58.587Z,20.03
2022-12-13T05:08:30.224Z,19.68
2022-12-13T05:10:01.840Z,20.55
2022-12-13T05:11:35.838Z,19.82
2022-12-13T05:13:07.585Z,19.82
2022-12-13T05:14:38.765Z,19.76
2022-12-13T05:16:10.130Z,20.52
2022-12-13T05:17:41.665Z,20.31
2022-12-13T05:19:13.082Z,19.69
2022-12-13T05:20:44.584Z,20.22
2022-12-13T05:22:20.514Z,19.69
2022-12-13T05:23:57.561Z,19.72
2022-12-13T05:25:29.049Z,19.96
2022-12-13T05:27:00.695Z,20.55
2022-12-13T05:28:32.349Z,19.20
2022-12-13T05:30:23.997Z,19.72
2022-12-13T05:31:56.619Z,20.26
2022-12-13T05:33:28.078Z,20.22
2022-12-13T05:35:04.729Z,19.79
2022-12-13T05:36:36.277Z,19.27
2022-12-13T05:38:07.611Z,18.62
2022-12-13T05:39:39.076Z,18.78
2022-12-13T05:41:15.741Z,18.60
2022-12-13T05:42:47.141Z,18.34
2022-12-13T05:44:18.677Z,18.61
2022-12-13T05:45:50.103Z,18.68
2022-12-13T05:47:42.134Z,18.16
2022-12-13T05:49:13.638Z,18.88
2022-12-13T05:50:45.268Z,19.00
2022-12-13T05:52:17.357Z,18.38
2022-12-13T05:53:53.287Z,17.73
2022-12-13T05:55:24.858Z,18.52
2022-12-13T05:56:56.274Z,18.39
2022-12-13T05:58:27.817Z,17.85
2022-12-13T06:00:07.614Z,18.72
2022-12-13T06:02:03.709Z,18.20
2022-12-13T06:03:35.456Z,17.73
2022-12-13T06:05:26.937Z,17.86
2022-12-13T06:06:58.591Z,17.74
2022-12-13T06:08:30.224Z,17.72
2022-12-13T06:10:10.603Z,17.75
2022-12-13T06:11:43.229Z,18.20
2022-12-13T06:13:21.755Z,17.54
2022-12-13T06:15:03.419Z,18.23
2022-12-13T06:16:52.913Z,17.88
2022-12-13T06:18:29.611Z,18.08
2022-12-13T06:20:02.704Z,17.80
2022-12-13T06:22:09.243Z,18.21
2022-12-13T06:23:41.115Z,17.36
2022-12-13T06:25:31.105Z,17.68
2022-12-13T06:27:03.454Z,17.07
2022-12-13T06:28:44.811Z,18.15
2022-12-13T06:30:21.278Z,18.05
2022-12-13T06:32:03.490Z,17.98
2022-12-13T06:33:35.066Z,18.40
2022-12-13T06:35:28.547Z,18.61
2022-12-13T06:37:01.392Z,19.21
2022-12-13T06:38:32.921Z,18.75
2022-12-13T06:40:23.514Z,18.70
2022-12-13T06:42:05.875Z,18.06
2022-12-13T06:43:38.146Z,18.16
2022-12-13T06:45:09.796Z,17.62
2022-12-13T06:46:41.277Z,18.16
2022-12-13T06:48:16.297Z,18.32
2022-12-13T06:49:51.531Z,18.87
2022-12-13T06:51:32.224Z,18.83
2022-12-13T06:53:04.096Z,19.35
2022-12-13T06:54:35.413Z,18.64
2022-12-13T06:56:06.789Z,19.57
2022-12-13T06:57:38.614Z,19.70
2022-12-13T06:59:22.340Z,20.03
2022-12-13T07:01:24.681Z,19.46
2022-12-13T07:02:56.935Z,21.57
2022-12-13T07:04:29.930Z,20.44
2022-12-13T07:06:08.546Z,20.19
2022-12-13T07:07:39.709Z,19.11
2022-12-13T07:09:11.353Z,18.85
2022-12-13T07:10:44.602Z,19.31
2022-12-13T07:12:16.189Z,18.63
2022-12-13T07:13:47.680Z,18.88
2022-12-13T07:15:19.225Z,18.97
2022-12-13T07:16:50.793Z,18.58
2022-12-13T07:18:22.110Z,19.05
2022-12-13T07:19:53.678Z,19.39
2022-12-13T07:21:25.218Z,19.47
2022-12-13T07:22:58.615Z,18.91
2022-12-13T07:24:30.894Z,18.43
2022-12-13T07:26:02.621Z,19.21
2022-12-13T07:27:34.219Z,18.93
2022-12-13T07:29:05.914Z,19.10
2022-12-13T07:30:40.999Z,19.01
2022-12-13T07:32:13.108Z,19.54
2022-12-13T07:33:44.868Z,18.71
2022-12-13T07:35:16.343Z,18.66
2022-12-13T07:36:48.006Z,18.93
2022-12-13T07:38:29.552Z,18.88
2022-12-13T07:40:04.510Z,19.01
2022-12-13T07:41:36.432Z,19.20
2022-12-13T07:43:08.035Z,19.27
2022-12-13T07:44:39.512Z,19.60
2022-12-13T07:46:21.442Z,19.56
2022-12-13T07:48:04.100Z,18.59
2022-12-13T07:49:46.435Z,19.28
2022-12-13T07:51:18.010Z,19.67
2022-12-13T07:52:54.480Z,19.61
2022-12-13T07:54:25.854Z,19.35
2022-12-13T07:55:57.123Z,19.43
2022-12-13T07:57:28.715Z,19.67
2022-12-13T07:59:05.224Z,18.88
2022-12-13T08:00:37.185Z,20.10
2022-12-13T08:02:26.294Z,19.83
2022-12-13T08:03:57.786Z,19.87
2022-12-13T08:05:29.269Z,19.46
2022-12-13T08:07:10.805Z,19.75
2022-12-13T08:08:42.672Z,20.02
2022-12-13T08:10:19.124Z,19.64
2022-12-13T08:11:55.891Z,19.80
2022-12-13T08:13:29.654Z,20.03
2022-12-13T08:15:01.752Z,19.94
2022-12-13T08:16:39.311Z,19.56
2022-12-13T08:18:10.505Z,19.72
2022-12-13T08:19:46.964Z,20.44
2022-12-13T08:21:52.525Z,20.03
2022-12-13T08:23:33.782Z,19.53
2022-12-13T08:25:16.244Z,19.56
2022-12-13T08:26:48.596Z,19.81
2022-12-13T08:28:20.170Z,20.40
2022-12-13T08:29:51.622Z,20.28
2022-12-13T08:31:28.405Z,19.64
2022-12-13T08:33:05.636Z,20.28
2022-12-13T08:34:37.486Z,19.96
2022-12-13T08:36:14.089Z,20.63
2022-12-13T08:37:46.152Z,19.88
2022-12-13T08:39:18.105Z,20.10
2022-12-13T08:40:51.534Z,20.99
2022-12-13T08:42:24.238Z,20.75
2022-12-13T08:43:56.327Z,20.48
2022-12-13T08:45:28.588Z,20.48
2022-12-13T08:47:00.566Z,20.52
2022-12-13T08:48:32.399Z,21.14
2022-12-13T08:50:04.756Z,21.04
2022-12-13T08:51:36.501Z,20.44
2022-12-13T08:53:08.486Z,20.02
2022-12-13T08:54:40.200Z,20.02
2022-12-13T08:56:12.047Z,19.25
2022-12-13T08:57:43.712Z,20.13
2022-12-13T08:59:15.956Z,20.38
2022-12-13T09:00:48.038Z,20.19
2022-12-13T09:02:19.875Z,20.18
2022-12-13T09:03:51.768Z,20.79
2022-12-13T09:05:34.416Z,19.83
2022-12-13T09:07:06.659Z,19.95
2022-12-13T09:08:43.235Z,19.80
2022-12-13T09:10:26.300Z,19.81
2022-12-13T09:12:00.172Z,19.48
2022-12-13T09:13:33.013Z,20.15
2022-12-13T09:15:05.939Z,20.25
2022-12-13T09:16:55.607Z,20.12
2022-12-13T09:18:36.111Z,20.38
2022-12-13T09:20:28.159Z,20.19
2022-12-13T09:22:03.022Z,19.29
2022-12-13T09:23:45.900Z,19.18
2022-12-13T09:25:23.916Z,19.83
2022-12-13T09:26:57.169Z,20.21
2022-12-13T09:28:29.133Z,19.77
2022-12-13T09:30:01.108Z,19.85
2022-12-13T09:31:32.884Z,19.58
2022-12-13T09:33:17.684Z,19.23
2022-12-13T09:35:01.114Z,19.57
2022-12-13T09:36:33.362Z,19.70
2022-12-13T09:38:05.924Z,20.31
2022-12-13T09:39:37.628Z,19.25
2022-12-13T09:41:10.289Z,19.69
2022-12-13T09:42:43.598Z,19.77
2022-12-13T09:44:30.511Z,19.50
2022-12-13T09:46:05.111Z,19.72
2022-12-13T09:47:47.202Z,19.52
2022-12-13T09:49:23.224Z,19.83
2022-12-13T09:51:16.586Z,19.15
2022-12-13T09:52:50.652Z,18.65
2022-12-13T09:54:22.516Z,18.65
2022-12-13T09:55:54.439Z,18.67
2022-12-13T09:57:42.158Z,18.66
2022-12-13T09:59:14.256Z,17.63
2022-12-13T10:00:45.695Z,17.96
2022-12-13T10:02:18.086Z,17.31
2022-12-13T10:03:50.032Z,17.75
2022-12-13T10:05:24.722Z,17.56
2022-12-13T10:07:07.903Z,16.98
2022-12-13T10:08:39.617Z,17.60
2022-12-13T10:10:11.529Z,17.84
2022-12-13T10:11:47.239Z,18.00
2022-12-13T10:13:22.693Z,18.39
2022-12-13T10:14:54.551Z,18.45
2022-12-13T10:16:26.733Z,17.50
2022-12-13T10:18:07.915Z,17.80
2022-12-13T10:19:40.185Z,17.15
2022-12-13T10:21:11.860Z,16.11
2022-12-13T10:23:01.600Z,15.67
2022-12-13T10:24:47.193Z,17.00
2022-12-13T10:26:24.300Z,17.06
2022-12-13T10:27:57.205Z,17.10
2022-12-13T10:29:28.641Z,17.14
2022-12-13T10:31:08.191Z,16.88
2022-12-13T10:32:40.054Z,17.37
2022-12-13T10:34:12.420Z,17.60
2022-12-13T10:35:44.398Z,17.90
2022-12-13T10:37:16.332Z,18.25
2022-12-13T10:38:48.291Z,17.69
2022-12-13T10:40:32.189Z,17.18
2022-12-13T10:42:04.888Z,17.36
2022-12-13T10:43:38.084Z,17.52
2022-12-13T10:45:10.832Z,17.53
2022-12-13T10:46:42.713Z,17.95
2022-12-13T10:48:16.782Z,17.50
2022-12-13T10:49:51.757Z,17.33
2022-12-13T10:51:31.017Z,17.69
2022-12-13T10:53:04.307Z,17.17
2022-12-13T10:54:48.595Z,17.56
2022-12-13T10:56:37.552Z,17.06
2022-12-13T10:58:09.605Z,16.00
2022-12-13T10:59:41.209Z,16.16
2022-12-13T11:01:12.928Z,15.88
2022-12-13T11:02:45.734Z,16.01
2022-12-13T11:04:17.963Z,16.41
2022-12-13T11:05:56.241Z,16.18
2022-12-13T11:07:30.192Z,16.50
2022-12-13T11:09:01.738Z,16.49
2022-12-13T11:10:38.603Z,15.68
2022-12-13T11:12:10.599Z,14.80
2022-12-13T11:13:42.109Z,14.34
2022-12-13T11:15:18.620Z,15.72
2022-12-13T11:16:55.380Z,15.63
2022-12-13T11:18:27.429Z,15.96
2022-12-13T11:19:59.429Z,15.94
2022-12-13T11:21:40.702Z,15.52
2022-12-13T11:23:12.776Z,16.38
2022-12-13T11:24:44.145Z,15.84
2022-12-13T11:26:15.600Z,15.47
2022-12-13T11:27:56.208Z,15.60
2022-12-13T11:29:27.467Z,15.21
2022-12-13T11:31:01.514Z,14.73
2022-12-13T11:32:33.193Z,14.48
2022-12-13T11:34:04.629Z,14.15
2022-12-13T11:35:36.185Z,14.00
2022-12-13T11:37:08.123Z,14.79
2022-12-13T11:38:39.331Z,15.17
2022-12-13T11:40:32.136Z,15.86
2022-12-13T11:42:03.496Z,15.83
2022-12-13T11:43:39.899Z,15.15
2022-12-13T11:45:13.267Z,14.97
2022-12-13T11:46:44.839Z,14.09
2022-12-13T11:48:16.430Z,13.83
2022-12-13T11:49:47.737Z,13.88
2022-12-13T11:51:19.064Z,13.97
2022-12-13T11:52:50.587Z,13.58
2022-12-13T11:54:23.524Z,13.58
2022-12-13T11:56:01.596Z,13.64
2022-12-13T11:57:33.222Z,13.84
2022-12-13T11:59:09.549Z,14.16
2022-12-13T12:00:46.051Z,13.74
2022-12-13T12:02:18.566Z,12.80
2022-12-13T12:03:50.053Z,12.48
2022-12-13T12:05:21.467Z,12.44
2022-12-13T12:06:52.808Z,12.79
2022-12-13T12:08:43.461Z,12.95
2022-12-13T12:10:14.673Z,13.41
2022-12-13T12:11:45.973Z,13.54
2022-12-13T12:13:17.299Z,14.34
2022-12-13T12:14:48.488Z,13.65
2022-12-13T12:16:23.668Z,13.50
2022-12-13T12:17:55.366Z,13.35
2022-12-13T12:19:26.642Z,13.43
2022-12-13T12:20:58.077Z,13.95
2022-12-13T12:22:29.467Z,13.42
2022-12-13T12:24:01.061Z,13.41
2022-12-13T12:25:51.472Z,14.02
2022-12-13T12:27:27.770Z,14.34
2022-12-13T12:29:01.229Z,13.12
2022-12-13T12:30:32.868Z,13.59
2022-12-13T12:32:04.274Z,13.04
2022-12-13T12:33:35.964Z,13.05
2022-12-13T12:35:07.309Z,14.29
2022-12-13T12:36:43.776Z,13.80
2022-12-13T12:38:15.465Z,13.64
2022-12-13T12:39:47.988Z,13.88
2022-12-13T12:41:19.373Z,13.37
2022-12-13T12:43:14.287Z,13.06
2022-12-13T12:44:46.262Z,13.25
2022-12-13T12:46:19.021Z,13.52
2022-12-13T12:48:41.303Z,13.47
2022-12-13T12:50:22.087Z,13.70
2022-12-13T12:51:53.334Z,13.34
2022-12-13T12:53:24.638Z,13.32
2022-12-13T12:54:56.560Z,13.61
2022-12-13T12:56:29.228Z,13.09
2022-12-13T12:58:10.488Z,13.57
2022-12-13T12:59:41.864Z,13.68
2022-12-13T13:01:17.275Z,13.22
2022-12-13T13:02:48.777Z,13.48
2022-12-13T13:04:22.514Z,13.11
2022-12-13T13:06:01.458Z,13.90
2022-12-13T13:07:40.121Z,22.68
2022-12-13T13:09:11.760Z,19.12
2022-12-13T13:10:49.795Z,18.98
2022-12-13T13:12:29.141Z,16.56
2022-12-13T13:14:02.379Z,14.34
2022-12-13T13:15:40.060Z,14.07
2022-12-13T13:17:11.580Z,14.24
2022-12-13T13:18:43.081Z,13.70
2022-12-13T13:20:14.612Z,13.87
2022-12-13T13:21:46.116Z,14.02
2022-12-13T13:23:39.388Z,13.49
2022-12-13T13:25:11.721Z,12.58
2022-12-13T13:26:43.213Z,12.60
2022-12-13T13:28:14.881Z,11.82
2022-12-13T13:29:46.347Z,11.69
2022-12-13T13:31:17.996Z,11.91
2022-12-13T13:32:49.610Z,11.99
2022-12-13T13:34:21.052Z,12.16
2022-12-13T13:35:52.601Z,12.26
2022-12-13T13:37:23.871Z,11.66
2022-12-13T13:38:55.362Z,11.17
2022-12-13T13:40:44.270Z,11.25
2022-12-13T13:42:15.556Z,11.63
2022-12-13T13:43:46.835Z,11.94
2022-12-13T13:45:18.091Z,12.13
2022-12-13T13:46:49.326Z,12.02
2022-12-13T13:48:25.644Z,12.07
2022-12-13T13:50:01.649Z,12.34
2022-12-13T13:51:33.503Z,11.95
2022-12-13T13:53:05.318Z,12.37
2022-12-13T13:54:38.487Z,12.23
2022-12-13T13:56:10.309Z,11.94
2022-12-13T13:58:07.526Z,11.74
2022-12-13T13:59:59.657Z,11.89
2022-12-13T14:01:31.113Z,12.31
2022-12-13T14:03:08.924Z,12.07
2022-12-13T14:04:44.188Z,11.86
2022-12-13T14:06:15.803Z,13.04
2022-12-13T14:07:47.633Z,12.05
2022-12-13T14:09:18.968Z,11.88
2022-12-13T14:10:50.445Z,11.57
2022-12-13T14:12:21.951Z,11.91
2022-12-13T14:13:53.609Z,12.08
2022-12-13T14:15:24.740Z,11.99
2022-12-13T14:16:56.150Z,12.73
2022-12-13T14:18:27.704Z,12.49
2022-12-13T14:19:59.469Z,13.05
2022-12-13T14:21:32.934Z,13.04
2022-12-13T14:23:04.156Z,13.21
2022-12-13T14:24:35.288Z,12.92
2022-12-13T14:26:11.476Z,13.32
2022-12-13T14:27:43.590Z,13.37
2022-12-13T14:29:28.178Z,13.40
2022-12-13T14:31:00.093Z,13.89
2022-12-13T14:32:31.471Z,13.42
2022-12-13T14:34:02.832Z,13.60
2022-12-13T14:35:34.130Z,13.54
2022-12-13T14:37:05.712Z,13.48
2022-12-13T14:38:57.382Z,13.50
2022-12-13T14:40:28.789Z,13.47
2022-12-13T14:42:06.816Z,13.69
2022-12-13T14:43:38.974Z,22.53
2022-12-13T14:45:10.481Z,22.27
2022-12-13T14:46:41.867Z,14.75
2022-12-13T14:48:13.437Z,13.68
2022-12-13T14:49:49.077Z,13.82
2022-12-13T14:51:21.110Z,14.17
2022-12-13T14:52:52.698Z,15.02
2022-12-13T14:54:26.081Z,14.91
2022-12-13T14:55:58.008Z,14.69
2022-12-13T14:57:30.132Z,16.12
2022-12-13T14:59:01.864Z,18.52
2022-12-13T15:00:33.514Z,19.62
2022-12-13T15:02:06.142Z,17.47
2022-12-13T15:03:47.934Z,17.87
2022-12-13T15:05:28.809Z,17.93
2022-12-13T15:07:00.573Z,18.16
2022-12-13T15:08:42.156Z,16.69
2022-12-13T15:10:13.926Z,15.70
2022-12-13T15:11:45.485Z,15.95
2022-12-13T15:13:17.007Z,15.26
2022-12-13T15:14:49.543Z,15.16
2022-12-13T15:16:21.504Z,15.10
2022-12-13T15:17:53.145Z,15.57
2022-12-13T15:19:29.653Z,15.47
2022-12-13T15:21:03.524Z,15.02
2022-12-13T15:22:41.530Z,15.33
2022-12-13T15:24:12.771Z,15.29
2022-12-13T15:25:44.550Z,15.03
2022-12-13T15:27:16.096Z,15.26
2022-12-13T15:28:47.665Z,15.20
2022-12-13T15:30:19.443Z,14.85
2022-12-13T15:31:51.095Z,14.92
2022-12-13T15:33:26.293Z,15.17
2022-12-13T15:35:02.247Z,15.01
2022-12-13T15:36:33.795Z,15.39
2022-12-13T15:38:05.379Z,15.56
2022-12-13T15:39:37.234Z,15.48
2022-12-13T15:41:18.695Z,15.30
2022-12-13T15:42:50.132Z,15.50
2022-12-13T15:44:21.685Z,15.38
2022-12-13T15:45:53.221Z,15.09
2022-12-13T15:47:39.267Z,14.89
2022-12-13T15:49:10.706Z,15.39
2022-12-13T15:50:47.159Z,15.45
2022-12-13T15:52:33.176Z,15.51
2022-12-13T15:54:04.579Z,14.79
2022-12-13T15:55:36.143Z,15.30
2022-12-13T15:57:07.322Z,15.88
2022-12-13T15:58:38.602Z,16.47
2022-12-13T16:00:09.954Z,15.60
2022-12-13T16:01:41.563Z,16.47
2022-12-13T16:03:13.468Z,16.51
2022-12-13T16:04:45.843Z,16.32
2022-12-13T16:06:17.461Z,15.82
2022-12-13T16:07:50.766Z,15.66
2022-12-13T16:09:24.695Z,15.69
2022-12-13T16:10:56.482Z,15.83
2022-12-13T16:12:58.991Z,16.20
2022-12-13T16:14:49.167Z,16.20
2022-12-13T16:16:27.140Z,16.50
2022-12-13T16:17:59.540Z,16.46
2022-12-13T16:19:30.845Z,17.21
2022-12-13T16:21:02.318Z,17.39
2022-12-13T16:22:33.486Z,17.60
2022-12-13T16:24:05.111Z,17.86
2022-12-13T16:25:53.460Z,18.01
2022-12-13T16:27:25.033Z,17.88
2022-12-13T16:28:56.513Z,17.36
2022-12-13T16:30:27.745Z,17.60
2022-12-13T16:32:01.687Z,18.21
2022-12-13T16:33:39.988Z,17.59
2022-12-13T16:35:11.366Z,17.21
2022-12-13T16:36:42.739Z,17.50
2022-12-13T16:38:26.825Z,17.45
2022-12-13T16:39:58.716Z,17.00
2022-12-13T16:41:30.173Z,17.04
2022-12-13T16:43:01.741Z,16.64
2022-12-13T16:44:33.282Z,16.98
2022-12-13T16:47:16.835Z,16.71
2022-12-13T16:48:51.997Z,15.85
2022-12-13T16:50:23.358Z,15.75
2022-12-13T16:51:54.834Z,15.35
2022-12-13T16:53:27.032Z,15.74
2022-12-13T16:54:58.749Z,15.88
2022-12-13T16:56:30.211Z,15.36
2022-12-13T16:58:01.607Z,14.97
2022-12-13T16:59:38.003Z,15.85
2022-12-13T17:01:09.652Z,15.80
2022-12-13T17:02:41.172Z,16.01
2022-12-13T17:04:16.542Z,15.57
2022-12-13T17:05:51.215Z,15.88
2022-12-13T17:07:30.482Z,15.66
2022-12-13T17:09:07.046Z,15.35
2022-12-13T17:10:38.649Z,15.19
2022-12-13T17:12:10.104Z,15.42
2022-12-13T17:13:41.762Z,15.13
2022-12-13T17:15:13.228Z,15.51
2022-12-13T17:16:44.892Z,15.19
2022-12-13T17:18:16.406Z,14.59
2022-12-13T17:20:22.906Z,14.81
2022-12-13T17:21:54.710Z,14.56
2022-12-13T17:23:26.443Z,14.29
2022-12-13T17:24:58.383Z,14.55
2022-12-13T17:26:30.031Z,14.75
2022-12-13T17:28:01.438Z,14.55
2022-12-13T17:29:53.020Z,14.78
2022-12-13T17:31:24.909Z,14.86
2022-12-13T17:32:57.489Z,14.95
2022-12-13T17:34:29.253Z,15.13
2022-12-13T17:36:05.627Z,14.91
2022-12-13T17:38:03.252Z,15.05
2022-12-13T17:39:34.688Z,14.64
2022-12-13T17:41:06.315Z,14.72
2022-12-13T17:42:38.026Z,15.02
2022-12-13T17:44:09.885Z,14.49
2022-12-13T17:45:41.694Z,14.89
2022-12-13T17:47:13.302Z,14.91
2022-12-13T17:48:44.893Z,14.73
2022-12-13T17:50:32.768Z,15.11
2022-12-13T17:52:15.525Z,15.43
2022-12-13T17:53:47.579Z,15.46
2022-12-13T17:55:19.260Z,15.11
2022-12-13T17:56:57.772Z,15.01
2022-12-13T17:58:29.794Z,14.71
2022-12-13T18:00:11.572Z,14.99
2022-12-13T18:01:42.963Z,14.74
2022-12-13T18:03:26.198Z,14.51
2022-12-13T18:04:58.277Z,14.72
2022-12-13T18:06:29.859Z,15.04
2022-12-13T18:08:06.481Z,13.78
2022-12-13T18:09:47.803Z,14.24
2022-12-13T18:11:38.068Z,14.34
2022-12-13T18:13:10.010Z,14.10
2022-12-13T18:14:43.001Z,14.15
2022-12-13T18:16:15.725Z,13.64
2022-12-13T18:18:10.692Z,14.20
2022-12-13T18:19:43.268Z,13.59
2022-12-13T18:21:24.546Z,14.19
2022-12-13T18:22:56.594Z,14.10
2022-12-13T18:24:28.022Z,14.07
2022-12-13T18:26:00.207Z,13.72
2022-12-13T18:27:31.755Z,13.79
2022-12-13T18:29:03.438Z,14.23
2022-12-13T18:30:34.978Z,14.03
2022-12-13T18:32:21.981Z,21.74
2022-12-13T18:33:53.790Z,18.57
2022-12-13T18:35:25.425Z,16.91
2022-12-13T18:37:15.523Z,21.83
2022-12-13T18:38:47.496Z,31.17
2022-12-13T18:40:19.896Z,19.75
2022-12-13T18:41:51.550Z,18.72
2022-12-13T18:43:40.033Z,17.50
2022-12-13T18:45:12.491Z,18.38
2022-12-13T18:46:46.208Z,17.89
2022-12-13T18:48:32.930Z,17.86
2022-12-13T18:50:24.727Z,17.94
2022-12-13T18:52:01.850Z,17.22
2022-12-13T18:54:12.827Z,17.16
2022-12-13T18:55:44.480Z,16.63
2022-12-13T18:57:16.494Z,16.36
2022-12-13T18:58:54.732Z,15.93
2022-12-13T19:00:43.906Z,17.01
2022-12-13T19:02:28.389Z,16.84
2022-12-13T19:04:04.443Z,16.37
2022-12-13T19:05:35.821Z,15.86
2022-12-13T19:07:20.102Z,16.12
2022-12-13T19:08:51.801Z,15.68
2022-12-13T19:10:24.081Z,16.02
2022-12-13T19:13:47.856Z,15.25
2022-12-13T19:15:29.405Z,15.68
2022-12-13T19:17:01.055Z,16.41
2022-12-13T19:18:33.980Z,16.34
2022-12-13T19:20:05.906Z,15.72
2022-12-13T19:21:37.683Z,16.17
2022-12-13T19:23:09.556Z,15.84
2022-12-13T19:24:50.742Z,16.12
2022-12-13T19:26:22.678Z,16.01
2022-12-13T19:27:54.302Z,15.37
2022-12-13T19:29:26.015Z,15.50
2022-12-13T19:30:57.671Z,15.88
2022-12-13T19:32:29.391Z,15.76
2022-12-13T19:34:01.019Z,15.94
2022-12-13T19:35:33.928Z,16.24
2022-12-13T19:37:21.988Z,15.37
2022-12-13T19:38:53.464Z,15.38
2022-12-13T19:40:25.235Z,15.86
2022-12-13T19:42:06.916Z,15.82
2022-12-13T19:43:38.586Z,16.25
2022-12-13T19:45:10.461Z,16.77
2022-12-13T19:46:49.960Z,16.08
2022-12-13T19:48:27.713Z,16.18
2022-12-13T19:50:00.823Z,15.94
2022-12-13T19:51:39.656Z,16.53
2022-12-13T19:53:24.678Z,16.23
2022-12-13T19:55:10.807Z,16.04
2022-12-13T19:56:42.675Z,16.28
2022-12-13T19:58:15.350Z,16.30
2022-12-13T19:59:47.555Z,16.24
2022-12-13T20:01:19.472Z,17.11
2022-12-13T20:02:51.311Z,16.84
2022-12-13T20:04:23.396Z,17.11
2022-12-13T20:05:55.530Z,16.38
2022-12-13T20:07:27.232Z,16.68
2022-12-13T20:08:58.753Z,16.59
2022-12-13T20:10:30.591Z,17.22
2022-12-13T20:12:02.249Z,17.35
2022-12-13T20:13:33.927Z,17.63
2022-12-13T20:15:05.560Z,17.51
2022-12-13T20:16:37.386Z,16.65
2022-12-13T20:18:09.640Z,16.95
2022-12-13T20:19:41.328Z,17.19
2022-12-13T20:21:13.571Z,17.61
2022-12-13T20:22:46.156Z,17.39
2022-12-13T20:24:20.555Z,17.17
2022-12-13T20:25:55.640Z,18.05